Time;durP1;ratioP1;P1;durP2;ratioP2;P2;SDS_P1;SDS_P2;PMS_P1;PMS_P2;Temp;Humidity;BMP_temperature;BMP_pressure;BME280_temperature;BME280_humidity;BME280_pressure;Samples;Min_cycle;Max_cycle;Signal;HPM_P1;HPM_P2
2021/12/04 00:00:18;;;;;;;6.32;2.70;;;-5.40;99.90;;;;;;5032539;28;20029;-85
2021/12/04 00:02:43;;;;;;;10.95;2.65;;;-5.40;99.90;;;;;;5032150;28;20025;-85
2021/12/04 00:05:09;;;;;;;7.03;2.92;;;-5.40;99.90;;;;;;5032491;28;20017;-84
2021/12/04 00:07:37;;;;;;;5.75;2.83;;;-5.30;99.90;;;;;;5032435;28;20030;-84
2021/12/04 00:10:04;;;;;;;5.57;2.58;;;-5.30;99.90;;;;;;5032335;28;20026;-84
2021/12/04 00:12:32;;;;;;;7.80;3.28;;;-5.30;99.90;;;;;;5032378;28;20029;-84
2021/12/04 00:14:59;;;;;;;7.70;3.10;;;-5.40;99.90;;;;;;5032274;28;20596;-84
2021/12/04 00:17:26;;;;;;;5.85;2.72;;;-5.40;99.90;;;;;;5032232;28;20035;-84
2021/12/04 00:19:51;;;;;;;6.18;2.67;;;-5.30;99.90;;;;;;5033609;28;20072;-83
2021/12/04 00:22:17;;;;;;;6.63;2.65;;;-5.30;99.90;;;;;;5031992;28;20416;-84
2021/12/04 00:24:43;;;;;;;7.78;2.42;;;-5.30;99.90;;;;;;5032162;28;20021;-84
2021/12/04 00:27:08;;;;;;;5.47;2.70;;;-5.30;99.90;;;;;;5032125;28;20092;-84
2021/12/04 00:29:34;;;;;;;8.02;2.95;;;-5.30;99.90;;;;;;5032369;28;20044;-84
2021/12/04 00:32:11;;;;;;;6.65;2.63;;;-5.20;99.90;;;;;;5032079;28;20385;-84
2021/12/04 00:34:42;;;;;;;7.32;2.70;;;-5.20;99.90;;;;;;5033293;28;20022;-84
2021/12/04 00:50:44;;;;;;;7.03;2.35;;;-5.30;99.90;;;;;;5034816;28;20087;-84
2021/12/04 00:53:10;;;;;;;5.68;2.45;;;-5.20;99.90;;;;;;5031604;28;20366;-84
2021/12/04 00:55:35;;;;;;;5.93;2.33;;;-5.20;99.90;;;;;;5031627;28;20024;-84
2021/12/04 00:58:01;;;;;;;11.32;4.85;;;-5.10;99.90;;;;;;5031485;28;20025;-84
2021/12/04 01:00:27;;;;;;;5.60;2.45;;;-5.00;99.90;;;;;;5031533;28;20025;-84
2021/12/04 01:02:53;;;;;;;4.97;2.40;;;-5.00;99.90;;;;;;5028288;28;20117;-85
2021/12/04 01:05:19;;;;;;;6.68;2.70;;;-5.00;99.90;;;;;;5033085;28;20037;-84
2021/12/04 01:07:45;;;;;;;12.88;5.20;;;-5.00;99.90;;;;;;5033104;28;20025;-84
2021/12/04 01:10:11;;;;;;;12.45;4.88;;;-5.10;99.90;;;;;;5031391;28;20048;-84
2021/12/04 01:12:37;;;;;;;11.52;4.82;;;-5.20;99.90;;;;;;5031614;28;20021;-84
2021/12/04 01:15:05;;;;;;;8.38;4.22;;;-5.20;99.90;;;;;;5031222;28;20556;-84
2021/12/04 01:17:30;;;;;;;4.30;1.90;;;-5.20;99.90;;;;;;5034902;28;20505;-85
2021/12/04 01:19:56;;;;;;;5.18;2.40;;;-5.20;99.90;;;;;;5034880;28;20026;-84
2021/12/04 01:22:22;;;;;;;5.20;1.98;;;-5.20;99.90;;;;;;5035137;28;20370;-84
2021/12/04 01:24:48;;;;;;;5.95;2.40;;;-5.20;99.90;;;;;;5035619;28;20033;-84
2021/12/04 01:27:14;;;;;;;6.82;2.10;;;-5.10;99.90;;;;;;5035157;28;20037;-84
2021/12/04 01:29:43;;;;;;;4.57;2.00;;;-5.20;99.90;;;;;;5036086;28;20036;-84
2021/12/04 01:32:09;;;;;;;4.55;2.00;;;-5.20;99.90;;;;;;5034605;28;20023;-84
2021/12/04 01:34:36;;;;;;;4.28;1.95;;;-5.20;99.90;;;;;;5034702;28;20040;-84
2021/12/04 01:37:04;;;;;;;6.43;1.95;;;-5.20;99.90;;;;;;5036102;28;20105;-84
2021/12/04 01:39:31;;;;;;;3.83;1.80;;;-5.20;99.90;;;;;;5036265;28;20040;-84
2021/12/04 01:41:56;;;;;;;5.80;2.05;;;-5.10;99.90;;;;;;5034781;28;20093;-84
2021/12/04 01:44:22;;;;;;;6.38;2.55;;;-5.00;99.90;;;;;;5034694;28;20033;-84
2021/12/04 01:46:48;;;;;;;6.43;2.00;;;-5.00;99.90;;;;;;5034845;28;20100;-84
2021/12/04 01:49:14;;;;;;;4.32;1.95;;;-4.90;99.90;;;;;;5034389;28;20516;-84
2021/12/04 01:51:39;;;;;;;4.07;2.17;;;-4.90;99.90;;;;;;5036230;28;20101;-84
2021/12/04 01:54:05;;;;;;;5.00;2.08;;;-4.90;99.90;;;;;;5034716;28;20033;-84
2021/12/04 01:56:33;;;;;;;4.53;2.08;;;-4.90;99.90;;;;;;5034196;28;20504;-84
2021/12/04 01:58:59;;;;;;;4.43;2.00;;;-4.80;99.90;;;;;;5034534;28;20037;-85
2021/12/04 02:01:25;;;;;;;4.90;2.30;;;-4.70;99.90;;;;;;5034520;28;20036;-84
2021/12/04 02:03:51;;;;;;;7.05;2.67;;;-4.70;99.90;;;;;;5035681;28;20384;-84
2021/12/04 02:06:17;;;;;;;6.82;2.83;;;-4.60;99.90;;;;;;5035293;28;20032;-84
2021/12/04 02:08:43;;;;;;;6.20;2.30;;;-4.50;99.90;;;;;;5035598;28;20108;-84
2021/12/04 02:11:09;;;;;;;3.00;1.60;;;-4.40;99.90;;;;;;5034185;28;20461;-85
2021/12/04 02:13:34;;;;;;;3.38;1.88;;;-4.40;99.90;;;;;;5034254;28;20033;-84
2021/12/04 02:16:02;;;;;;;5.10;1.80;;;-4.40;99.90;;;;;;5034241;28;20033;-84
2021/12/04 02:18:28;;;;;;;5.65;2.35;;;-4.50;99.90;;;;;;5034609;28;20059;-84
2021/12/04 02:20:53;;;;;;;4.38;1.92;;;-4.60;99.90;;;;;;5034521;28;20057;-84
2021/12/04 02:23:20;;;;;;;3.45;1.70;;;-4.70;99.90;;;;;;5040574;23;20033;-81
2021/12/04 02:25:45;;;;;;;4.07;1.80;;;-4.70;99.90;;;;;;5035730;28;20013;-82
2021/12/04 02:28:12;;;;;;;4.63;1.65;;;-4.60;99.90;;;;;;5034427;28;20037;-81
2021/12/04 02:30:41;;;;;;;6.10;2.20;;;-4.60;99.90;;;;;;5034541;28;20021;-81
2021/12/04 02:33:14;;;;;;;4.90;1.80;;;-4.50;99.90;;;;;;5035381;28;20025;-81
2021/12/04 02:35:42;;;;;;;3.05;1.42;;;-4.40;99.90;;;;;;5034245;28;20029;-81
2021/12/04 02:38:08;;;;;;;4.03;1.70;;;-4.30;99.90;;;;;;5016897;28;20397;-81
2021/12/04 02:40:34;;;;;;;4.88;1.80;;;-4.40;99.90;;;;;;5015977;28;20023;-81
2021/12/04 02:43:00;;;;;;;5.13;1.85;;;-4.40;99.90;;;;;;5014304;28;20054;-81
2021/12/04 02:45:25;;;;;;;5.43;1.90;;;-4.40;99.90;;;;;;5015715;28;20026;-84
2021/12/04 02:47:51;;;;;;;6.05;1.95;;;-4.40;99.90;;;;;;5014359;28;20053;-85
2021/12/04 02:50:17;;;;;;;4.10;1.65;;;-4.30;99.90;;;;;;5018991;28;20044;-84
2021/12/04 02:52:44;;;;;;;7.45;4.05;;;-4.30;99.90;;;;;;5024786;28;20022;-84
2021/12/04 02:55:10;;;;;;;3.60;1.60;;;-4.20;99.90;;;;;;5023909;28;20146;-85
2021/12/04 02:57:41;;;;;;;4.80;2.03;;;-4.20;99.90;;;;;;5033911;28;20029;-85
2021/12/04 03:00:09;;;;;;;3.65;2.05;;;-4.20;99.90;;;;;;5034032;28;20052;-84
2021/12/04 03:02:35;;;;;;;4.30;2.03;;;-4.10;99.90;;;;;;5033723;28;20072;-84
2021/12/04 03:05:06;;;;;;;3.88;2.05;;;-4.10;99.90;;;;;;5033370;28;20061;-84
2021/12/04 03:07:31;;;;;;;5.45;2.00;;;-4.10;99.90;;;;;;5033430;28;20127;-84
2021/12/04 03:09:57;;;;;;;5.70;2.47;;;-4.00;99.90;;;;;;5034864;28;20064;-81
2021/12/04 03:12:24;;;;;;;4.32;1.95;;;-4.00;99.90;;;;;;5016183;28;20048;-81
2021/12/04 03:14:51;;;;;;;4.15;1.70;;;-3.90;99.90;;;;;;5033519;28;20446;-81
2021/12/04 03:17:19;;;;;;;6.85;2.35;;;-3.90;99.90;;;;;;5034285;28;20485;-81
2021/12/04 03:19:45;;;;;;;3.80;2.08;;;-3.90;99.90;;;;;;5033753;28;20033;-80
2021/12/04 03:22:12;;;;;;;3.95;2.15;;;-3.90;99.90;;;;;;5030258;28;20044;-82
2021/12/04 03:24:41;;;;;;;4.00;1.60;;;-3.80;99.90;;;;;;5017874;28;20026;-82
2021/12/04 03:27:07;;;;;;;5.07;2.17;;;-3.80;99.90;;;;;;5017979;28;20055;-81
2021/12/04 03:29:38;;;;;;;5.20;2.28;;;-3.80;99.90;;;;;;5035239;28;20072;-81
2021/12/04 03:42:38;;;;;;;2.63;1.65;;;-3.70;99.90;;;;;;5035564;28;20466;-81
2021/12/04 03:45:06;;;;;;;2.95;1.33;;;-3.70;99.90;;;;;;5033360;28;20469;-81
2021/12/04 03:47:32;;;;;;;3.55;1.90;;;-3.70;99.90;;;;;;5034861;28;20022;-81
2021/12/04 03:49:58;;;;;;;5.50;2.50;;;-3.70;99.90;;;;;;5033594;28;20439;-81
2021/12/04 03:52:23;;;;;;;5.72;2.33;;;-3.80;99.90;;;;;;5034597;28;20114;-81
2021/12/04 03:54:49;;;;;;;4.20;1.92;;;-3.80;99.90;;;;;;5054393;28;20025;-81
2021/12/04 03:57:15;;;;;;;3.30;1.77;;;-3.70;99.90;;;;;;5055206;28;20388;-81
2021/12/04 03:59:47;;;;;;;3.97;1.85;;;-3.60;99.90;;;;;;5053831;28;20028;-81
2021/12/04 04:02:14;;;;;;;6.85;3.38;;;-3.60;99.90;;;;;;5054839;28;20021;-81
2021/12/04 04:04:40;;;;;;;4.70;2.88;;;-3.50;99.90;;;;;;5054755;28;20053;-81
2021/12/04 04:07:06;;;;;;;4.95;2.40;;;-3.50;99.90;;;;;;5053466;28;20028;-81
2021/12/04 04:09:33;;;;;;;5.15;2.53;;;-3.40;99.90;;;;;;5053396;28;20033;-81
2021/12/04 04:11:59;;;;;;;4.80;2.30;;;-3.40;99.90;;;;;;5018977;28;20022;-81
2021/12/04 04:14:25;;;;;;;5.18;2.22;;;-3.30;99.90;;;;;;5015609;28;20029;-81
2021/12/04 04:16:53;;;;;;;3.75;2.00;;;-3.30;99.90;;;;;;5014010;28;20060;-81
2021/12/04 04:19:20;;;;;;;5.80;2.33;;;-3.30;99.90;;;;;;5014204;28;20026;-81
2021/12/04 04:21:46;;;;;;;6.63;2.58;;;-3.40;99.90;;;;;;5014804;28;20026;-81
2021/12/04 04:24:15;;;;;;;5.75;2.33;;;-3.40;99.90;;;;;;5018105;28;20032;-81
2021/12/04 04:26:43;;;;;;;6.47;2.30;;;-3.50;99.90;;;;;;5014788;28;20474;-81
2021/12/04 04:29:09;;;;;;;6.90;2.60;;;-3.60;99.90;;;;;;5025269;28;20083;-81
2021/12/04 04:31:36;;;;;;;5.30;2.20;;;-3.60;99.90;;;;;;5018621;28;20041;-81
2021/12/04 04:34:08;;;;;;;5.63;2.33;;;-3.60;99.90;;;;;;5034849;28;20049;-81
2021/12/04 05:12:12;;;;;;;14.40;5.55;;;-3.30;99.90;;;;;;5035691;28;20056;-83
2021/12/04 05:14:41;;;;;;;9.50;4.65;;;-3.30;99.90;;;;;;5034633;28;20022;-83
2021/12/04 05:17:11;;;;;;;12.85;4.28;;;-3.20;99.90;;;;;;5035377;28;20057;-81
2021/12/04 05:19:52;;;;;;;7.63;3.83;;;-3.20;99.90;;;;;;5038873;28;20017;-80
2021/12/04 05:22:19;;;;;;;8.20;4.20;;;-3.10;99.90;;;;;;5037441;28;20033;-83
2021/12/04 05:24:44;;;;;;;7.28;3.53;;;-3.10;99.90;;;;;;5035260;28;20489;-84
2021/12/04 05:27:11;;;;;;;6.68;3.47;;;-3.00;99.90;;;;;;5037159;28;20014;-84
2021/12/04 05:29:37;;;;;;;8.70;3.22;;;-3.00;99.90;;;;;;5035708;28;20400;-84
2021/12/04 05:32:05;;;;;;;7.03;3.25;;;-3.00;99.90;;;;;;5022073;28;20021;-84
2021/12/04 05:34:32;;;;;;;12.35;5.28;;;-2.90;99.90;;;;;;5016949;28;20088;-84
2021/12/04 05:36:58;;;;;;;10.90;5.18;;;-2.90;99.90;;;;;;5017064;28;20031;-84
2021/12/04 05:39:24;;;;;;;13.23;6.80;;;-3.00;99.90;;;;;;5015447;28;20026;-83
2021/12/04 05:41:51;;;;;;;3.40;1.90;;;-3.00;99.90;;;;;;5017399;28;20029;-83
2021/12/04 05:44:20;;;;;;;5.78;1.88;;;-2.90;99.90;;;;;;5021260;28;20018;-83
2021/12/04 05:46:54;;;;;;;5.88;1.70;;;-2.90;99.90;;;;;;5036546;28;20026;-83
2021/12/04 05:49:27;;;;;;;1.98;1.23;;;-2.80;99.90;;;;;;5037169;28;20101;-83
2021/12/04 05:52:17;;;;;;;2.88;1.52;;;-2.80;99.90;;;;;;5036721;28;20101;-83
2021/12/04 05:57:10;;;;;;;7.95;2.70;;;-2.80;99.90;;;;;;5017139;28;20030;-82
2021/12/04 05:59:35;;;;;;;8.98;3.97;;;-2.80;99.90;;;;;;5017503;28;20026;-83
2021/12/04 06:02:02;;;;;;;5.63;2.63;;;-2.80;99.90;;;;;;5016534;28;20128;-83
2021/12/04 06:04:28;;;;;;;4.88;2.72;;;-2.90;99.90;;;;;;5015428;28;20018;-83
2021/12/04 06:06:54;;;;;;;4.50;2.60;;;-2.90;99.90;;;;;;5016970;28;20029;-83
2021/12/04 06:09:20;;;;;;;5.00;2.65;;;-2.90;99.90;;;;;;5015349;28;20466;-84
2021/12/04 06:11:46;;;;;;;4.97;2.60;;;-2.90;99.90;;;;;;5026687;28;20032;-83
2021/12/04 06:14:12;;;;;;;4.28;2.70;;;-2.90;99.90;;;;;;5036194;28;20434;-84
2021/12/04 06:16:39;;;;;;;5.88;2.75;;;-2.90;99.90;;;;;;5034597;28;20107;-83
2021/12/04 06:19:11;;;;;;;3.88;2.15;;;-2.90;99.90;;;;;;5034675;28;20053;-83
2021/12/04 06:24:21;;;;;;;3.50;1.90;;;-2.80;99.90;;;;;;5031409;28;20033;-83
2021/12/04 06:26:46;;;;;;;3.75;1.80;;;-2.80;99.90;;;;;;5016297;28;20022;-83
2021/12/04 06:29:12;;;;;;;3.97;1.92;;;-2.70;99.90;;;;;;5016407;28;20026;-83
2021/12/04 06:31:38;;;;;;;4.68;1.90;;;-2.70;99.90;;;;;;5014685;28;20026;-83
2021/12/04 06:34:04;;;;;;;4.57;1.80;;;-2.60;99.90;;;;;;5015780;28;20044;-83
2021/12/04 06:36:29;;;;;;;4.72;1.77;;;-2.60;99.90;;;;;;5014256;28;20026;-83
2021/12/04 06:38:55;;;;;;;5.03;2.10;;;-2.60;99.90;;;;;;5014934;28;20379;-83
2021/12/04 06:41:21;;;;;;;4.00;1.75;;;-2.50;99.90;;;;;;5013971;28;20041;-83
2021/12/04 06:43:49;;;;;;;4.45;1.50;;;-2.50;99.90;;;;;;5013987;28;20052;-83
2021/12/04 06:46:17;;;;;;;4.28;1.85;;;-2.50;99.90;;;;;;5015582;28;20454;-83
2021/12/04 06:49:00;;;;;;;3.92;2.10;;;-2.40;99.90;;;;;;5015415;28;20026;-83
2021/12/04 06:51:33;;;;;;;7.80;3.17;;;-2.40;99.90;;;;;;5015570;28;20100;-83
2021/12/04 06:54:06;;;;;;;10.23;4.00;;;-2.40;99.90;;;;;;5018640;28;20030;-83
2021/12/04 06:56:35;;;;;;;10.57;3.75;;;-2.30;99.90;;;;;;5013920;28;20485;-84
2021/12/04 06:59:07;;;;;;;6.65;3.55;;;-2.30;99.90;;;;;;5014590;28;20033;-83
2021/12/04 07:01:33;;;;;;;7.18;3.80;;;-2.40;99.90;;;;;;5016425;28;20033;-82
2021/12/04 07:03:58;;;;;;;6.18;3.33;;;-2.40;99.90;;;;;;5015918;28;20047;-81
2021/12/04 07:06:24;;;;;;;7.72;3.08;;;-2.40;99.90;;;;;;5015320;28;20017;-81
2021/12/04 07:08:50;;;;;;;8.10;2.63;;;-2.40;99.90;;;;;;5014758;28;20382;-80
2021/12/04 07:11:16;;;;;;;5.70;3.17;;;-2.40;99.90;;;;;;5015253;28;20022;-82
2021/12/04 07:13:42;;;;;;;5.55;2.85;;;-2.40;99.90;;;;;;5012658;28;20033;-82
2021/12/04 07:16:08;;;;;;;6.18;3.42;;;-2.40;99.90;;;;;;5014899;28;20453;-82
2021/12/04 07:18:35;;;;;;;6.32;2.50;;;-2.40;99.90;;;;;;5022879;28;20037;-82
2021/12/04 07:21:02;;;;;;;3.55;1.45;;;-2.30;99.90;;;;;;5014659;28;20105;-81
2021/12/04 07:23:27;;;;;;;4.30;1.88;;;-2.30;99.90;;;;;;5024384;28;20034;-82
2021/12/04 07:25:53;;;;;;;3.75;1.65;;;-2.20;99.90;;;;;;5034678;28;20075;-81
2021/12/04 07:28:19;;;;;;;6.45;2.97;;;-2.20;99.90;;;;;;5034598;28;20021;-81
2021/12/04 07:30:45;;;;;;;5.63;3.35;;;-2.20;99.90;;;;;;5029761;28;20153;-82
2021/12/04 07:33:11;;;;;;;6.07;2.97;;;-2.20;99.90;;;;;;5015474;28;20030;-84
2021/12/04 07:35:37;;;;;;;4.50;2.65;;;-2.10;99.90;;;;;;5013213;28;20021;-83
2021/12/04 07:38:02;;;;;;;5.93;3.50;;;-2.10;99.90;;;;;;5014943;28;20104;-83
2021/12/04 07:40:28;;;;;;;4.78;3.10;;;-2.10;99.90;;;;;;5012943;28;20411;-83
2021/12/04 07:42:54;;;;;;;6.43;3.33;;;-2.00;99.90;;;;;;5026895;28;20120;-83
2021/12/04 07:45:20;;;;;;;5.03;2.78;;;-2.00;99.90;;;;;;5032596;28;20029;-83
2021/12/04 07:47:46;;;;;;;4.15;2.20;;;-1.90;99.90;;;;;;5034107;28;20030;-83
2021/12/04 07:50:14;;;;;;;3.70;2.13;;;-1.90;99.90;;;;;;5034095;28;20017;-83
2021/12/04 07:52:40;;;;;;;3.90;2.30;;;-1.90;99.90;;;;;;5032667;28;20473;-83
2021/12/04 07:55:08;;;;;;;7.35;4.43;;;-1.90;99.90;;;;;;5033648;28;20048;-82
2021/12/04 07:57:34;;;;;;;7.47;3.72;;;-1.90;99.90;;;;;;5033849;28;20489;-82
2021/12/04 08:00:00;;;;;;;5.82;3.55;;;-1.80;99.90;;;;;;5033851;28;20104;-83
2021/12/04 08:02:27;;;;;;;9.45;6.05;;;-1.80;99.90;;;;;;5034043;28;20516;-83
2021/12/04 08:04:52;;;;;;;6.90;4.75;;;-1.80;99.90;;;;;;5033895;28;20029;-83
2021/12/04 08:07:18;;;;;;;7.72;5.55;;;-1.80;99.90;;;;;;5034090;28;20025;-83
2021/12/04 08:09:44;;;;;;;7.15;5.30;;;-1.80;99.90;;;;;;5032385;28;20500;-83
2021/12/04 08:12:10;;;;;;;7.85;4.93;;;-1.70;99.90;;;;;;5034563;28;20022;-82
2021/12/04 08:14:37;;;;;;;5.07;3.50;;;-1.70;99.90;;;;;;5032774;28;20075;-82
2021/12/04 08:17:03;;;;;;;5.75;3.47;;;-1.60;99.90;;;;;;5033734;28;20032;-83
2021/12/04 08:19:29;;;;;;;6.40;3.17;;;-1.60;99.90;;;;;;5034116;28;20021;-83
2021/12/04 08:21:55;;;;;;;6.18;3.42;;;-1.50;99.90;;;;;;5033943;28;20043;-82
2021/12/04 08:24:20;;;;;;;7.78;3.40;;;-1.50;99.90;;;;;;5015832;28;20076;-82
2021/12/04 08:26:47;;;;;;;5.32;2.95;;;-1.50;99.90;;;;;;5012532;28;20478;-83
2021/12/04 08:29:13;;;;;;;6.10;3.10;;;-1.50;99.90;;;;;;5013029;28;20022;-83
2021/12/04 08:31:40;;;;;;;5.82;3.08;;;-1.40;99.90;;;;;;5014011;28;20047;-83
2021/12/04 08:34:06;;;;;;;6.15;2.97;;;-1.40;99.90;;;;;;5013990;28;20091;-83
2021/12/04 08:36:32;;;;;;;9.55;4.10;;;-1.40;99.90;;;;;;5012695;28;20482;-83
2021/12/04 08:39:04;;;;;;;7.20;3.28;;;-1.30;99.90;;;;;;5014204;28;20029;-83
2021/12/04 08:41:30;;;;;;;12.82;5.57;;;-1.30;99.90;;;;;;5013783;28;20058;-83
2021/12/04 08:43:55;;;;;;;8.35;4.78;;;-1.30;99.90;;;;;;5013982;28;20029;-82
2021/12/04 08:46:23;;;;;;;10.07;4.85;;;-1.30;99.90;;;;;;5012475;28;20022;-82
2021/12/04 08:48:50;;;;;;;13.65;5.45;;;-1.30;99.90;;;;;;5014046;28;20030;-82
2021/12/04 08:51:18;;;;;;;13.23;6.10;;;-1.30;99.90;;;;;;5014203;28;20025;-82
2021/12/04 08:53:44;;;;;;;10.95;5.53;;;-1.20;99.90;;;;;;5013836;28;20021;-82
2021/12/04 08:56:10;;;;;;;21.48;10.00;;;-1.20;99.90;;;;;;5013900;28;20113;-82
2021/12/04 08:58:39;;;;;;;21.10;8.30;;;-1.10;99.90;;;;;;5013873;28;20111;-83
2021/12/04 09:01:12;;;;;;;15.05;6.95;;;-1.10;99.90;;;;;;5012347;28;20025;-84
2021/12/04 09:03:44;;;;;;;12.63;5.00;;;-1.00;99.90;;;;;;5012305;28;20030;-83
2021/12/04 09:06:10;;;;;;;11.30;3.63;;;-1.00;99.90;;;;;;5012337;28;20125;-82
2021/12/04 09:08:36;;;;;;;8.13;3.25;;;-1.00;99.90;;;;;;5012762;28;20037;-83
2021/12/04 09:11:12;;;;;;;8.30;2.70;;;-1.00;99.90;;;;;;5013213;28;20382;-83
2021/12/04 09:13:39;;;;;;;9.60;5.82;;;-0.90;99.90;;;;;;5013288;28;20026;-82
2021/12/04 09:16:05;;;;;;;9.55;5.47;;;-0.90;99.90;;;;;;5011916;28;20092;-82
2021/12/04 09:18:31;;;;;;;6.78;3.70;;;-0.80;99.90;;;;;;5013282;28;20084;-82
2021/12/04 09:20:58;;;;;;;8.63;3.88;;;-0.80;99.90;;;;;;5012291;28;20060;-82
2021/12/04 09:23:30;;;;;;;7.90;4.70;;;-0.80;99.90;;;;;;5011867;28;20037;-82
2021/12/04 09:26:00;;;;;;;9.27;4.07;;;-0.80;99.90;;;;;;5012025;28;20117;-82
2021/12/04 09:28:27;;;;;;;9.30;4.10;;;-0.80;99.90;;;;;;5012153;28;20022;-82
2021/12/04 10:20:52;;;;;;;6.32;3.50;;;0.00;99.90;;;;;;5028270;28;20501;-83
2021/12/04 10:34:30;;;;;;;6.43;4.15;;;0.20;99.90;;;;;;5015178;28;20032;-83
2021/12/04 10:37:11;;;;;;;10.57;5.22;;;0.20;99.90;;;;;;5013627;28;20044;-83
2021/12/04 10:39:37;;;;;;;6.95;3.97;;;0.20;99.90;;;;;;5014953;28;20026;-83
2021/12/04 10:42:09;;;;;;;6.28;3.75;;;0.20;99.90;;;;;;5015781;28;20041;-84
2021/12/04 10:44:41;;;;;;;6.57;3.50;;;0.20;99.90;;;;;;5014508;28;20026;-83
2021/12/04 10:47:11;;;;;;;5.57;3.20;;;0.30;99.90;;;;;;5016791;28;20390;-83
2021/12/04 10:49:55;;;;;;;4.63;3.03;;;0.30;99.90;;;;;;5015604;28;20478;-83
2021/12/04 10:52:49;;;;;;;6.55;3.97;;;0.40;99.90;;;;;;5017157;28;20409;-83
2021/12/04 10:58:26;;;;;;;6.88;3.60;;;0.40;99.90;;;;;;5016339;28;20037;-83
2021/12/04 11:01:16;;;;;;;8.07;3.58;;;0.40;99.90;;;;;;5017228;28;20149;-83
2021/12/04 11:23:03;;;;;;;9.95;2.78;;;0.40;99.90;;;;;;5038959;28;20035;-83
2021/12/04 11:39:07;;;;;;;5.00;2.78;;;0.40;99.90;;;;;;5043336;28;20025;-83
2021/12/04 11:41:56;;;;;;;5.85;2.47;;;0.30;99.90;;;;;;5023974;28;20095;-83
2021/12/04 11:44:29;;;;;;;5.25;3.13;;;0.30;99.90;;;;;;5014232;28;20032;-83
2021/12/04 11:46:57;;;;;;;5.10;3.08;;;0.30;99.90;;;;;;5017352;28;20013;-83
2021/12/04 11:49:26;;;;;;;7.38;3.63;;;0.30;99.90;;;;;;5029815;28;20025;-82
2021/12/04 11:51:57;;;;;;;7.72;3.78;;;0.20;99.90;;;;;;5035143;28;20450;-82
2021/12/04 11:54:43;;;;;;;6.05;3.40;;;0.20;99.90;;;;;;5021783;28;20057;-82
2021/12/04 11:57:11;;;;;;;8.45;3.30;;;0.30;99.90;;;;;;5031567;28;20029;-83
2021/12/04 11:59:40;;;;;;;6.00;3.20;;;0.30;99.90;;;;;;5015332;28;20060;-82
2021/12/04 12:02:08;;;;;;;8.55;3.83;;;0.30;99.90;;;;;;5014114;28;20026;-82
2021/12/04 12:04:47;;;;;;;9.45;4.13;;;0.40;99.90;;;;;;5030209;28;20488;-84
2021/12/04 12:07:32;;;;;;;9.35;4.00;;;0.40;99.90;;;;;;5032747;28;20029;-83
2021/12/04 12:10:11;;;;;;;7.70;4.18;;;0.50;99.90;;;;;;5033748;28;20025;-82
2021/12/04 12:12:39;;;;;;;31.52;12.82;;;0.50;99.90;;;;;;5032623;28;20025;-82
2021/12/04 12:15:31;;;;;;;69.97;33.40;;;0.50;99.90;;;;;;5016950;28;20026;-83
2021/12/04 12:18:13;;;;;;;57.13;27.58;;;0.60;99.90;;;;;;5012952;28;20113;-83
2021/12/04 12:20:46;;;;;;;57.35;26.10;;;0.70;99.90;;;;;;5012745;28;20045;-82
2021/12/04 12:23:14;;;;;;;14.93;7.25;;;0.80;99.90;;;;;;5013907;28;20034;-82
2021/12/04 12:37:18;;;;;;;11.77;5.28;;;1.20;99.90;;;;;;5002955;28;20121;-82
2021/12/04 12:39:58;;;;;;;9.27;5.55;;;1.30;99.90;;;;;;5026835;28;20099;-83
2021/12/04 12:42:36;;;;;;;14.90;7.03;;;1.30;99.90;;;;;;5012547;28;20061;-79
2021/12/04 12:45:27;;;;;;;14.50;6.78;;;1.30;99.90;;;;;;5020249;28;20026;-82
2021/12/04 12:48:06;;;;;;;11.23;5.60;;;1.30;99.90;;;;;;5019204;28;20022;-83
2021/12/04 12:50:42;;;;;;;11.02;5.32;;;1.30;99.90;;;;;;5020857;28;20528;-83
2021/12/04 12:53:12;;;;;;;6.13;3.33;;;1.30;99.90;;;;;;5029755;28;20498;-82
2021/12/04 12:55:40;;;;;;;5.72;3.33;;;1.40;99.90;;;;;;5017371;28;20033;-82
2021/12/04 12:58:39;;;;;;;7.25;3.15;;;1.40;99.90;;;;;;5015492;28;20025;-83
2021/12/04 13:12:51;;;;;;;6.63;2.67;;;1.40;99.90;;;;;;5018714;28;20390;-85
2021/12/04 13:15:39;;;;;;;4.68;2.42;;;1.30;99.90;;;;;;5028355;28;20105;-84
2021/12/04 13:18:23;;;;;;;6.38;2.90;;;1.30;99.90;;;;;;5027562;28;20026;-84
2021/12/04 13:20:51;;;;;;;4.70;2.47;;;1.30;99.90;;;;;;5021086;28;20021;-83
2021/12/04 13:23:20;;;;;;;4.60;2.80;;;1.30;99.90;;;;;;5025975;28;20517;-82
2021/12/04 13:25:50;;;;;;;5.78;2.78;;;1.30;99.90;;;;;;5014864;28;20032;-82
2021/12/04 13:28:24;;;;;;;4.00;2.47;;;1.30;99.90;;;;;;5024710;28;20469;-83
2021/12/04 13:30:50;;;;;;;6.13;3.45;;;1.40;99.90;;;;;;5035737;28;20022;-83
2021/12/04 13:33:16;;;;;;;5.60;3.30;;;1.40;99.90;;;;;;5036108;28;20037;-83
2021/12/04 13:35:45;;;;;;;4.63;2.70;;;1.40;99.90;;;;;;5015606;28;20366;-84
2021/12/04 13:38:14;;;;;;;6.18;3.08;;;1.30;99.90;;;;;;5016963;28;20053;-87
2021/12/04 13:40:43;;;;;;;8.55;3.15;;;1.30;99.90;;;;;;5016675;28;20022;-84
2021/12/04 13:43:13;;;;;;;4.68;2.78;;;1.40;99.90;;;;;;5030278;28;20512;-83
2021/12/04 13:45:41;;;;;;;4.15;2.15;;;1.40;99.90;;;;;;5034644;28;20117;-85
2021/12/04 13:48:08;;;;;;;3.80;2.33;;;1.40;99.90;;;;;;5028035;28;20081;-83
2021/12/04 13:53:06;;;;;;;5.07;3.13;;;1.50;99.90;;;;;;5023577;28;20022;-85
2021/12/04 13:55:36;;;;;;;6.18;3.00;;;1.50;99.90;;;;;;5036317;28;20056;-85
2021/12/04 13:58:03;;;;;;;12.13;3.63;;;1.50;99.90;;;;;;5035540;28;20029;-86
2021/12/04 14:00:29;;;;;;;5.25;3.08;;;1.40;99.90;;;;;;5035664;28;20052;-85
2021/12/04 14:02:55;;;;;;;6.72;2.90;;;1.40;99.90;;;;;;5029583;28;20025;-82
2021/12/04 14:05:23;;;;;;;6.03;2.72;;;1.30;99.90;;;;;;5027525;28;20032;-84
2021/12/04 14:08:01;;;;;;;7.13;3.47;;;1.20;99.90;;;;;;5020154;28;20470;-85
2021/12/04 14:10:34;;;;;;;7.97;3.33;;;1.20;99.90;;;;;;5032077;28;20148;-84
2021/12/04 14:13:02;;;;;;;5.03;2.47;;;1.10;99.90;;;;;;5029330;28;20025;-85
2021/12/04 14:15:28;;;;;;;5.60;2.60;;;1.10;99.90;;;;;;5037194;28;20024;-86
2021/12/04 14:18:07;;;;;;;6.15;2.58;;;1.00;99.90;;;;;;5033742;28;20025;-85
2021/12/04 14:20:35;;;;;;;5.50;2.60;;;1.00;99.90;;;;;;5023025;28;20425;-87
2021/12/04 14:23:01;;;;;;;6.38;2.70;;;0.90;99.90;;;;;;5025439;28;20029;-86
2021/12/04 14:25:28;;;;;;;3.72;2.10;;;0.90;99.90;;;;;;5030268;28;20030;-86
2021/12/04 14:27:56;;;;;;;4.88;2.53;;;0.90;99.90;;;;;;5019461;28;20088;-86
2021/12/04 14:30:31;;;;;;;5.38;3.78;;;0.80;99.90;;;;;;5014808;28;20026;-84
2021/12/04 14:32:58;;;;;;;6.50;3.75;;;0.70;99.90;;;;;;5016497;28;20022;-86
2021/12/04 14:35:28;;;;;;;6.40;3.53;;;0.70;99.90;;;;;;5014604;28;20036;-86
2021/12/04 14:37:56;;;;;;;9.90;4.32;;;0.60;99.90;;;;;;5022661;28;20022;-85
2021/12/04 14:40:33;;;;;;;5.95;3.50;;;0.60;99.90;;;;;;5028997;28;20041;-86
2021/12/04 14:42:59;;;;;;;10.95;4.70;;;0.50;99.90;;;;;;5020559;28;20049;-85
2021/12/04 14:45:31;;;;;;;8.73;4.50;;;0.50;99.90;;;;;;5034232;28;20029;-86
2021/12/04 14:48:01;;;;;;;6.43;4.03;;;0.50;99.90;;;;;;5034399;28;20553;-86
2021/12/04 14:50:27;;;;;;;6.88;3.78;;;0.50;99.90;;;;;;5033370;28;20036;-85
2021/12/04 14:52:59;;;;;;;6.18;3.00;;;0.50;99.90;;;;;;5018932;28;20026;-84
2021/12/04 14:55:27;;;;;;;5.70;2.83;;;0.50;99.90;;;;;;5025529;28;20044;-84
2021/12/04 14:57:54;;;;;;;4.68;2.80;;;0.50;99.90;;;;;;5023859;28;20374;-85
2021/12/04 15:00:24;;;;;;;5.10;3.15;;;0.50;99.90;;;;;;5020091;28;20157;-84
2021/12/04 15:03:01;;;;;;;8.80;4.20;;;0.50;99.90;;;;;;5025165;28;20021;-84
2021/12/04 15:05:34;;;;;;;15.73;7.25;;;0.50;99.90;;;;;;5031382;28;20481;-85
2021/12/04 15:08:06;;;;;;;16.70;7.30;;;0.50;99.90;;;;;;5022520;28;20497;-83
2021/12/04 15:10:32;;;;;;;12.23;6.65;;;0.50;99.90;;;;;;5024129;28;20038;-85
2021/12/04 15:12:59;;;;;;;10.82;5.57;;;0.40;99.90;;;;;;5024765;28;20512;-85
2021/12/04 15:15:34;;;;;;;10.20;5.13;;;0.40;99.90;;;;;;5033769;28;20030;-84
2021/12/04 15:18:05;;;;;;;8.50;4.63;;;0.40;99.90;;;;;;5021759;28;20112;-84
2021/12/04 15:20:33;;;;;;;7.80;5.40;;;0.40;99.90;;;;;;5018094;28;20116;-85
2021/12/04 15:23:04;;;;;;;12.00;5.90;;;0.40;99.90;;;;;;5034761;28;20159;-85
2021/12/04 15:25:35;;;;;;;10.40;5.60;;;0.40;99.90;;;;;;5034580;28;20021;-85
2021/12/04 15:28:13;;;;;;;11.52;5.70;;;0.50;99.90;;;;;;5024669;28;20033;-84
2021/12/04 15:30:43;;;;;;;8.82;5.00;;;0.40;99.90;;;;;;5034759;28;20053;-85
2021/12/04 15:33:23;;;;;;;8.10;4.55;;;0.40;99.90;;;;;;5034855;28;20021;-85
2021/12/04 15:35:50;;;;;;;9.55;5.00;;;0.40;99.90;;;;;;5033691;28;20029;-84
2021/12/04 15:38:29;;;;;;;8.98;4.53;;;0.40;99.90;;;;;;5029183;28;20078;-85
2021/12/04 15:43:37;;;;;;;10.75;4.18;;;0.40;99.90;;;;;;5026011;28;20034;-84
2021/12/04 15:53:57;;;;;;;10.57;5.63;;;0.40;99.90;;;;;;5025006;28;20124;-84
2021/12/04 15:56:41;;;;;;;9.65;5.25;;;0.40;99.90;;;;;;5036213;28;20040;-84
2021/12/04 15:59:11;;;;;;;12.60;5.32;;;0.40;99.90;;;;;;5020350;28;20044;-84
2021/12/04 16:01:36;;;;;;;9.43;5.32;;;0.40;99.90;;;;;;5024309;28;20021;-85
2021/12/04 16:04:02;;;;;;;13.38;6.45;;;0.50;99.90;;;;;;5031528;28;20090;-83
2021/12/04 16:06:39;;;;;;;13.05;6.50;;;0.60;99.90;;;;;;5020009;28;20026;-83
2021/12/04 16:09:06;;;;;;;11.90;6.60;;;0.70;99.90;;;;;;5011698;28;20018;-83
2021/12/04 16:11:40;;;;;;;12.85;6.65;;;0.80;99.90;;;;;;5012870;28;20053;-84
2021/12/04 16:14:08;;;;;;;12.88;7.05;;;0.80;99.90;;;;;;5011618;28;20033;-84